Vinings, Georgia
Current Conditions -  °F | °C
As of 4:13 AM on Monday 22 Dec 2014 (Local Time) from KMGE Reporting Station
Haze Haze  
Wind Chill: 40°   Ceiling: 500
Heat Index: 45°   Visibility: 4mi
Dew Point: 45°   Wind: 8mph
Humidity: 100%   Direction: 80°E
Pressure: 30.03"   Gusts: NA
Location:  33.87°N, 84.47°W
Report Text: KMGE 220913Z AUTO 08007KT 4SM R29/4500FT BR OVC005 07/07 A3003 RMK AO2 $
Loading
Personal Weather Stations






























Interactive Weather Map New forecast layout! Learn more

10-Day Weather Forecast

Advertisements
Track Severe Weather on mobile